sensor_id;sensor_type;location;lat;lon;timestamp;pressure;altitude;pressure_sealevel;temperature;humidity
73455;BME280;61690;51.824;6.306;2023-05-08T00:01:07;101955.03;;;20.67;53.27
73455;BME280;61690;51.824;6.306;2023-05-08T00:03:33;101952.38;;;20.67;53.11
73455;BME280;61690;51.824;6.306;2023-05-08T00:06:02;101955.97;;;20.66;53.12
73455;BME280;61690;51.824;6.306;2023-05-08T00:08:28;101950.66;;;20.66;53.17
73455;BME280;61690;51.824;6.306;2023-05-08T00:10:53;101949.06;;;20.64;53.45
73455;BME280;61690;51.824;6.306;2023-05-08T00:13:19;101941.06;;;20.65;53.28
73455;BME280;61690;51.824;6.306;2023-05-08T00:15:44;101940.19;;;20.65;53.26
73455;BME280;61690;51.824;6.306;2023-05-08T00:18:10;101939.34;;;20.64;53.31
73455;BME280;61690;51.824;6.306;2023-05-08T00:20:35;101942.91;;;20.63;53.10
73455;BME280;61690;51.824;6.306;2023-05-08T00:23:00;101942.91;;;20.63;53.39
73455;BME280;61690;51.824;6.306;2023-05-08T00:25:26;101934.97;;;20.63;53.14
73455;BME280;61690;51.824;6.306;2023-05-08T00:27:52;101940.25;;;20.63;53.13
73455;BME280;61690;51.824;6.306;2023-05-08T00:30:17;101937.63;;;20.63;53.16
73455;BME280;61690;51.824;6.306;2023-05-08T00:32:42;101934.13;;;20.63;53.02
73455;BME280;61690;51.824;6.306;2023-05-08T00:35:08;101935.94;;;20.62;53.23
73455;BME280;61690;51.824;6.306;2023-05-08T00:37:33;101944.78;;;20.61;53.14
73455;BME280;61690;51.824;6.306;2023-05-08T00:40:00;101939.41;;;20.63;53.06
73455;BME280;61690;51.824;6.306;2023-05-08T00:42:25;101945.66;;;20.62;53.02
73455;BME280;61690;51.824;6.306;2023-05-08T00:44:50;101936.97;;;20.60;53.23
73455;BME280;61690;51.824;6.306;2023-05-08T00:47:16;101945.75;;;20.60;52.88
73455;BME280;61690;51.824;6.306;2023-05-08T00:49:41;101947.44;;;20.61;53.16
73455;BME280;61690;51.824;6.306;2023-05-08T00:52:07;101947.59;;;20.58;53.13
73455;BME280;61690;51.824;6.306;2023-05-08T00:54:34;101941.44;;;20.57;53.13
73455;BME280;61690;51.824;6.306;2023-05-08T00:57:01;101944.94;;;20.58;53.04
73455;BME280;61690;51.824;6.306;2023-05-08T00:59:27;101944.94;;;20.58;53.16
73455;BME280;61690;51.824;6.306;2023-05-08T01:01:56;101937.94;;;20.57;53.07
73455;BME280;61690;51.824;6.306;2023-05-08T01:04:23;101945.03;;;20.56;53.02
73455;BME280;61690;51.824;6.306;2023-05-08T01:06:50;101930.00;;;20.57;53.10
73455;BME280;61690;51.824;6.306;2023-05-08T01:09:16;101930.84;;;20.57;52.99
73455;BME280;61690;51.824;6.306;2023-05-08T01:17:28;101934.53;;;20.55;53.27
73455;BME280;61690;51.824;6.306;2023-05-08T01:20:29;101938.91;;;20.56;52.80
73455;BME280;61690;51.824;6.306;2023-05-08T01:31:23;101940.78;;;20.54;53.01
73455;BME280;61690;51.824;6.306;2023-05-08T01:34:17;101942.47;;;20.55;53.00
73455;BME280;61690;51.824;6.306;2023-05-08T01:36:50;101941.72;;;20.53;53.04
73455;BME280;61690;51.824;6.306;2023-05-08T01:39:29;101935.56;;;20.52;52.96
73455;BME280;61690;51.824;6.306;2023-05-08T01:42:19;101942.53;;;20.53;53.07
73455;BME280;61690;51.824;6.306;2023-05-08T01:44:51;101941.78;;;20.51;53.03
73455;BME280;61690;51.824;6.306;2023-05-08T01:47:19;101940.94;;;20.51;52.95
73455;BME280;61690;51.824;6.306;2023-05-08T01:49:56;101948.03;;;20.50;52.92
73455;BME280;61690;51.824;6.306;2023-05-08T01:52:36;101949.78;;;20.50;53.13
73455;BME280;61690;51.824;6.306;2023-05-08T01:55:15;101951.69;;;20.48;53.02
73455;BME280;61690;51.824;6.306;2023-05-08T01:57:46;101955.19;;;20.48;52.80
73455;BME280;61690;51.824;6.306;2023-05-08T02:00:18;101965.78;;;20.48;52.94
73455;BME280;61690;51.824;6.306;2023-05-08T02:02:46;101957.72;;;20.50;52.89
73455;BME280;61690;51.824;6.306;2023-05-08T02:05:12;101957.72;;;20.50;52.80
73455;BME280;61690;51.824;6.306;2023-05-08T02:07:40;101962.16;;;20.49;52.82
73455;BME280;61690;51.824;6.306;2023-05-08T02:10:09;101959.72;;;20.46;52.66
73455;BME280;61690;51.824;6.306;2023-05-08T02:12:36;101963.22;;;20.47;52.80
73455;BME280;61690;51.824;6.306;2023-05-08T02:15:04;101953.56;;;20.46;52.95
73455;BME280;61690;51.824;6.306;2023-05-08T02:17:32;101957.91;;;20.47;52.65
73455;BME280;61690;51.824;6.306;2023-05-08T02:19:59;101956.97;;;20.48;52.73
73455;BME280;61690;51.824;6.306;2023-05-08T02:22:26;101958.75;;;20.47;53.02
73455;BME280;61690;51.824;6.306;2023-05-08T02:24:53;101957.91;;;20.47;52.58
73455;BME280;61690;51.824;6.306;2023-05-08T02:27:21;101960.56;;;20.47;52.62
73455;BME280;61690;51.824;6.306;2023-05-08T02:29:49;101965.84;;;20.47;52.81
73455;BME280;61690;51.824;6.306;2023-05-08T02:32:16;101966.78;;;20.46;52.82
73455;BME280;61690;51.824;6.306;2023-05-08T02:34:42;101968.50;;;20.47;52.65
73455;BME280;61690;51.824;6.306;2023-05-08T02:37:09;101964.31;;;20.43;52.56
73455;BME280;61690;51.824;6.306;2023-05-08T02:39:35;101966.97;;;20.43;52.94
73455;BME280;61690;51.824;6.306;2023-05-08T02:42:02;101965.09;;;20.45;52.86
73455;BME280;61690;51.824;6.306;2023-05-08T02:44:28;101966.97;;;20.43;52.81
73455;BME280;61690;51.824;6.306;2023-05-08T02:47:03;101971.38;;;20.42;52.57
73455;BME280;61690;51.824;6.306;2023-05-08T02:49:38;101968.84;;;20.41;52.73
73455;BME280;61690;51.824;6.306;2023-05-08T02:52:12;101979.31;;;20.42;52.87
73455;BME280;61690;51.824;6.306;2023-05-08T03:00:19;101962.59;;;20.42;52.56
73455;BME280;61690;51.824;6.306;2023-05-08T03:02:51;101958.28;;;20.41;52.73
73455;BME280;61690;51.824;6.306;2023-05-08T03:05:29;101959.97;;;20.42;52.77
73455;BME280;61690;51.824;6.306;2023-05-08T03:07:58;101960.16;;;20.39;52.56
73455;BME280;61690;51.824;6.306;2023-05-08T03:10:27;101961.91;;;20.38;52.64
73455;BME280;61690;51.824;6.306;2023-05-08T03:12:54;101964.56;;;20.38;52.82
73455;BME280;61690;51.824;6.306;2023-05-08T03:15:33;101962.03;;;20.36;52.83
73455;BME280;61690;51.824;6.306;2023-05-08T03:18:02;101961.16;;;20.36;52.79
73455;BME280;61690;51.824;6.306;2023-05-08T03:20:33;101963.72;;;20.37;52.65
73455;BME280;61690;51.824;6.306;2023-05-08T03:23:01;101962.78;;;20.39;52.83
73455;BME280;61690;51.824;6.306;2023-05-08T03:25:28;101970.81;;;20.37;52.64
73455;BME280;61690;51.824;6.306;2023-05-08T03:27:56;101963.72;;;20.37;52.75
73455;BME280;61690;51.824;6.306;2023-05-08T03:30:24;101965.44;;;20.39;52.71
73455;BME280;61690;51.824;6.306;2023-05-08T03:32:51;101962.03;;;20.36;52.63
73455;BME280;61690;51.824;6.306;2023-05-08T03:35:18;101961.16;;;20.36;52.54
73455;BME280;61690;51.824;6.306;2023-05-08T03:37:44;101958.44;;;20.37;52.76
73455;BME280;61690;51.824;6.306;2023-05-08T03:40:10;101960.03;;;20.40;52.59
73455;BME280;61690;51.824;6.306;2023-05-08T03:42:36;101955.19;;;20.48;52.36
73455;BME280;61690;51.824;6.306;2023-05-08T03:45:02;101956.63;;;20.54;52.17
73455;BME280;61690;51.824;6.306;2023-05-08T03:47:29;101946.72;;;20.57;52.03
73455;BME280;61690;51.824;6.306;2023-05-08T03:49:56;101951.78;;;20.62;52.25
73455;BME280;61690;51.824;6.306;2023-05-08T03:52:22;101949.75;;;20.67;51.93
73455;BME280;61690;51.824;6.306;2023-05-08T03:54:47;101944.25;;;20.70;51.69
73455;BME280;61690;51.824;6.306;2023-05-08T03:57:12;101947.66;;;20.72;51.96
73455;BME280;61690;51.824;6.306;2023-05-08T04:02:20;101950.31;;;20.72;51.66
73455;BME280;61690;51.824;6.306;2023-05-08T04:04:54;101956.47;;;20.73;51.79
73455;BME280;61690;51.824;6.306;2023-05-08T04:07:31;101959.75;;;20.76;51.68
73455;BME280;61690;51.824;6.306;2023-05-08T04:15:28;101962.06;;;20.83;51.80
73455;BME280;61690;51.824;6.306;2023-05-08T04:18:24;101970.94;;;20.82;51.64
73455;BME280;61690;51.824;6.306;2023-05-08T04:20:53;101962.84;;;20.85;51.69
73455;BME280;61690;51.824;6.306;2023-05-08T04:23:21;101963.59;;;20.87;51.78
73455;BME280;61690;51.824;6.306;2023-05-08T04:25:48;101956.44;;;20.89;51.67
73455;BME280;61690;51.824;6.306;2023-05-08T04:28:16;101954.53;;;20.91;51.39
73455;BME280;61690;51.824;6.306;2023-05-08T04:30:42;101955.28;;;20.93;51.38
73455;BME280;61690;51.824;6.306;2023-05-08T04:33:08;101959.53;;;20.95;51.34
73455;BME280;61690;51.824;6.306;2023-05-08T04:35:48;101960.31;;;20.98;51.23
73455;BME280;61690;51.824;6.306;2023-05-08T04:38:14;101961.94;;;21.00;51.25
73455;BME280;61690;51.824;6.306;2023-05-08T04:40:39;101965.34;;;21.02;51.20
73455;BME280;61690;51.824;6.306;2023-05-08T04:43:05;101964.38;;;21.03;51.17
73455;BME280;61690;51.824;6.306;2023-05-08T04:45:30;101964.38;;;21.03;51.05
73455;BME280;61690;51.824;6.306;2023-05-08T04:47:55;101963.47;;;21.04;51.12
73455;BME280;61690;51.824;6.306;2023-05-08T04:50:22;101963.47;;;21.04;51.06
73455;BME280;61690;51.824;6.306;2023-05-08T04:52:48;101970.44;;;21.05;51.38
73455;BME280;61690;51.824;6.306;2023-05-08T04:55:14;101961.41;;;21.09;51.10
73455;BME280;61690;51.824;6.306;2023-05-08T04:57:39;101957.03;;;21.08;51.13
73455;BME280;61690;51.824;6.306;2023-05-08T05:00:05;101957.78;;;21.10;51.07
73455;BME280;61690;51.824;6.306;2023-05-08T05:02:30;101959.50;;;21.11;50.93
73455;BME280;61690;51.824;6.306;2023-05-08T05:04:56;101958.63;;;21.11;50.91
73455;BME280;61690;51.824;6.306;2023-05-08T05:07:23;101958.56;;;21.12;51.03
73455;BME280;61690;51.824;6.306;2023-05-08T05:09:48;101967.44;;;21.11;50.89
73455;BME280;61690;51.824;6.306;2023-05-08T05:12:13;101967.44;;;21.11;50.97
73455;BME280;61690;51.824;6.306;2023-05-08T05:14:39;101967.34;;;21.13;50.92
73455;BME280;61690;51.824;6.306;2023-05-08T05:17:05;101973.66;;;21.10;51.05
73455;BME280;61690;51.824;6.306;2023-05-08T05:19:33;101976.47;;;21.07;51.31
73455;BME280;61690;51.824;6.306;2023-05-08T05:21:58;101983.50;;;21.08;51.25
73455;BME280;61690;51.824;6.306;2023-05-08T05:24:24;101983.50;;;21.08;50.99
73455;BME280;61690;51.824;6.306;2023-05-08T05:26:52;101986.31;;;21.05;50.99
73455;BME280;61690;51.824;6.306;2023-05-08T05:29:17;101995.97;;;21.06;51.05
73455;BME280;61690;51.824;6.306;2023-05-08T05:31:43;101997.75;;;21.06;51.11
73455;BME280;61690;51.824;6.306;2023-05-08T05:34:10;101995.97;;;21.06;51.17
73455;BME280;61690;51.824;6.306;2023-05-08T05:36:36;101998.78;;;21.03;51.29
73455;BME280;61690;51.824;6.306;2023-05-08T05:39:02;101999.81;;;21.01;51.19
73455;BME280;61690;51.824;6.306;2023-05-08T05:41:27;102004.19;;;21.02;51.42
73455;BME280;61690;51.824;6.306;2023-05-08T05:43:53;102009.56;;;21.00;51.17
73455;BME280;61690;51.824;6.306;2023-05-08T05:46:20;102012.28;;;20.99;51.39
73455;BME280;61690;51.824;6.306;2023-05-08T05:48:45;102011.44;;;20.98;51.25
73455;BME280;61690;51.824;6.306;2023-05-08T05:51:11;102015.00;;;20.97;50.92
73455;BME280;61690;51.824;6.306;2023-05-08T05:53:37;102017.72;;;20.95;51.21
73455;BME280;61690;51.824;6.306;2023-05-08T05:56:03;102018.59;;;20.96;51.19
73455;BME280;61690;51.824;6.306;2023-05-08T05:58:28;102018.78;;;20.93;51.38
73455;BME280;61690;51.824;6.306;2023-05-08T06:00:54;102024.91;;;20.93;51.35
73455;BME280;61690;51.824;6.306;2023-05-08T06:03:19;102028.50;;;20.92;51.42
73455;BME280;61690;51.824;6.306;2023-05-08T06:05:45;102032.84;;;20.93;51.06
73455;BME280;61690;51.824;6.306;2023-05-08T06:08:11;102029.53;;;20.90;51.25
73455;BME280;61690;51.824;6.306;2023-05-08T06:10:39;102029.44;;;20.91;51.27
73455;BME280;61690;51.824;6.306;2023-05-08T06:13:04;102032.16;;;20.90;51.45
73455;BME280;61690;51.824;6.306;2023-05-08T06:15:29;102026.88;;;20.90;51.27
73455;BME280;61690;51.824;6.306;2023-05-08T06:17:54;102031.47;;;20.86;51.39
73455;BME280;61690;51.824;6.306;2023-05-08T06:20:20;102028.94;;;20.85;51.32
73455;BME280;61690;51.824;6.306;2023-05-08T06:22:45;102033.47;;;20.83;51.45
73455;BME280;61690;51.824;6.306;2023-05-08T06:25:11;102030.91;;;20.81;51.51
73455;BME280;61690;51.824;6.306;2023-05-08T06:27:36;102032.59;;;20.82;51.36
73455;BME280;61690;51.824;6.306;2023-05-08T06:30:03;102026.75;;;20.77;51.67
73455;BME280;61690;51.824;6.306;2023-05-08T06:32:29;102033.72;;;20.78;51.44
73455;BME280;61690;51.824;6.306;2023-05-08T06:34:54;102028.44;;;20.78;51.68
73455;BME280;61690;51.824;6.306;2023-05-08T06:37:22;102037.22;;;20.79;51.48
73455;BME280;61690;51.824;6.306;2023-05-08T06:39:47;102032.88;;;20.78;51.40
73455;BME280;61690;51.824;6.306;2023-05-08T06:42:14;102030.22;;;20.78;51.44
73455;BME280;61690;51.824;6.306;2023-05-08T06:44:40;102032.03;;;20.77;51.33
73455;BME280;61690;51.824;6.306;2023-05-08T06:47:07;102028.50;;;20.76;51.41
73455;BME280;61690;51.824;6.306;2023-05-08T06:49:34;102033.81;;;20.76;51.35
73455;BME280;61690;51.824;6.306;2023-05-08T06:51:59;102033.81;;;20.76;51.40
73455;BME280;61690;51.824;6.306;2023-05-08T06:54:25;102028.69;;;20.73;51.58
73455;BME280;61690;51.824;6.306;2023-05-08T06:56:51;102031.28;;;20.75;51.41
73455;BME280;61690;51.824;6.306;2023-05-08T06:59:17;102043.53;;;20.76;51.50
73455;BME280;61690;51.824;6.306;2023-05-08T07:01:42;102037.47;;;20.74;51.57
73455;BME280;61690;51.824;6.306;2023-05-08T07:04:08;102043.72;;;20.73;51.52
73455;BME280;61690;51.824;6.306;2023-05-08T07:06:33;102040.22;;;20.72;51.40
73455;BME280;61690;51.824;6.306;2023-05-08T07:09:00;102041.09;;;20.73;51.24
73455;BME280;61690;51.824;6.306;2023-05-08T07:11:26;102042.84;;;20.72;51.37
73455;BME280;61690;51.824;6.306;2023-05-08T07:13:53;102039.97;;;20.77;51.68
73455;BME280;61690;51.824;6.306;2023-05-08T07:16:18;102036.38;;;20.78;51.43
73455;BME280;61690;51.824;6.306;2023-05-08T07:18:43;102033.81;;;20.76;51.69
73455;BME280;61690;51.824;6.306;2023-05-08T07:21:09;102030.41;;;20.74;51.54
73455;BME280;61690;51.824;6.306;2023-05-08T07:23:35;102032.97;;;20.76;51.62
73455;BME280;61690;51.824;6.306;2023-05-08T07:26:00;102029.63;;;20.72;51.57
73455;BME280;61690;51.824;6.306;2023-05-08T07:28:26;102030.41;;;20.74;51.38
73455;BME280;61690;51.824;6.306;2023-05-08T07:30:51;102030.41;;;20.74;51.42
73455;BME280;61690;51.824;6.306;2023-05-08T07:33:17;102029.63;;;20.72;51.46
73455;BME280;61690;51.824;6.306;2023-05-08T07:35:44;102034.00;;;20.73;51.56
73455;BME280;61690;51.824;6.306;2023-05-08T07:38:09;102033.22;;;20.71;51.41
73455;BME280;61690;51.824;6.306;2023-05-08T07:40:35;102036.63;;;20.73;51.32
73455;BME280;61690;51.824;6.306;2023-05-08T07:43:00;102039.28;;;20.73;51.56
73455;BME280;61690;51.824;6.306;2023-05-08T07:45:25;102040.13;;;20.74;51.47
73455;BME280;61690;51.824;6.306;2023-05-08T07:47:54;102042.41;;;20.80;51.77
73455;BME280;61690;51.824;6.306;2023-05-08T07:50:22;102039.59;;;20.83;51.54
73455;BME280;61690;51.824;6.306;2023-05-08T07:52:48;102033.63;;;20.80;51.63
73455;BME280;61690;51.824;6.306;2023-05-08T07:55:13;102038.56;;;20.86;51.87
73455;BME280;61690;51.824;6.306;2023-05-08T07:57:40;102034.72;;;20.91;51.53
73455;BME280;61690;51.824;6.306;2023-05-08T08:00:17;102032.75;;;20.95;51.81
73455;BME280;61690;51.824;6.306;2023-05-08T08:02:43;102035.31;;;20.97;51.74
73455;BME280;61690;51.824;6.306;2023-05-08T08:05:09;102034.28;;;20.99;51.68
73455;BME280;61690;51.824;6.306;2023-05-08T08:07:34;102032.41;;;21.01;51.89
73455;BME280;61690;51.824;6.306;2023-05-08T08:10:01;102024.22;;;21.06;51.98
73455;BME280;61690;51.824;6.306;2023-05-08T08:12:29;102027.72;;;21.06;52.11
73455;BME280;61690;51.824;6.306;2023-05-08T08:14:54;102031.03;;;21.10;51.89
73455;BME280;61690;51.824;6.306;2023-05-08T08:17:20;102028.31;;;21.11;52.11
73455;BME280;61690;51.824;6.306;2023-05-08T08:19:46;102035.13;;;21.15;52.12
73455;BME280;61690;51.824;6.306;2023-05-08T08:22:11;102041.09;;;21.19;52.03
73455;BME280;61690;51.824;6.306;2023-05-08T08:24:36;102034.91;;;21.19;52.11
73455;BME280;61690;51.824;6.306;2023-05-08T08:27:02;102035.69;;;21.21;51.91
73455;BME280;61690;51.824;6.306;2023-05-08T08:29:30;102030.31;;;21.22;51.75
73455;BME280;61690;51.824;6.306;2023-05-08T08:31:56;102037.22;;;21.25;51.95
73455;BME280;61690;51.824;6.306;2023-05-08T08:34:21;102038.00;;;21.27;51.89
73455;BME280;61690;51.824;6.306;2023-05-08T08:36:49;102034.38;;;21.28;52.01
73455;BME280;61690;51.824;6.306;2023-05-08T08:39:15;102039.88;;;21.25;51.68
73455;BME280;61690;51.824;6.306;2023-05-08T08:41:41;102034.75;;;21.22;51.67
73455;BME280;61690;51.824;6.306;2023-05-08T08:44:13;102036.56;;;21.21;51.86
73455;BME280;61690;51.824;6.306;2023-05-08T08:46:43;102033.91;;;21.21;51.71
73455;BME280;61690;51.824;6.306;2023-05-08T08:49:12;102032.28;;;21.19;51.88
73455;BME280;61690;51.824;6.306;2023-05-08T08:51:53;102030.38;;;21.21;51.84
73455;BME280;61690;51.824;6.306;2023-05-08T08:54:22;102035.34;;;21.27;51.88
73455;BME280;61690;51.824;6.306;2023-05-08T08:56:49;102032.50;;;21.30;51.99
73455;BME280;61690;51.824;6.306;2023-05-08T08:59:17;102032.31;;;21.33;52.02
73455;BME280;61690;51.824;6.306;2023-05-08T09:01:49;102034.78;;;21.36;52.31
73455;BME280;61690;51.824;6.306;2023-05-08T09:04:17;102025.06;;;21.37;52.01
73455;BME280;61690;51.824;6.306;2023-05-08T09:06:43;102028.47;;;21.39;52.23
73455;BME280;61690;51.824;6.306;2023-05-08T09:09:11;102022.13;;;21.41;52.32
73455;BME280;61690;51.824;6.306;2023-05-08T09:11:39;102020.22;;;21.43;52.32
73455;BME280;61690;51.824;6.306;2023-05-08T09:14:05;102016.69;;;21.44;52.27
73455;BME280;61690;51.824;6.306;2023-05-08T09:16:31;102027.09;;;21.47;52.40
73455;BME280;61690;51.824;6.306;2023-05-08T09:18:56;102019.91;;;21.49;52.57
73455;BME280;61690;51.824;6.306;2023-05-08T09:21:22;102021.53;;;21.52;52.59
73455;BME280;61690;51.824;6.306;2023-05-08T09:23:57;102008.19;;;21.53;52.63
73455;BME280;61690;51.824;6.306;2023-05-08T09:26:28;102009.81;;;21.56;52.85
73455;BME280;61690;51.824;6.306;2023-05-08T09:29:19;102009.72;;;21.58;52.82
73455;BME280;61690;51.824;6.306;2023-05-08T09:31:50;102008.66;;;21.60;52.97
73455;BME280;61690;51.824;6.306;2023-05-08T09:34:30;102005.94;;;21.62;52.85
73455;BME280;61690;51.824;6.306;2023-05-08T09:37:10;102013.78;;;21.63;52.88
73455;BME280;61690;51.824;6.306;2023-05-08T09:39:36;102011.91;;;21.65;52.97
73455;BME280;61690;51.824;6.306;2023-05-08T09:42:06;102011.78;;;21.67;52.95
73455;BME280;61690;51.824;6.306;2023-05-08T09:47:14;102014.16;;;21.71;52.89
73455;BME280;61690;51.824;6.306;2023-05-08T09:50:00;102013.13;;;21.74;52.90
73455;BME280;61690;51.824;6.306;2023-05-08T09:52:29;102012.19;;;21.75;52.98
73455;BME280;61690;51.824;6.306;2023-05-08T09:55:02;102010.47;;;21.74;52.61
73455;BME280;61690;51.824;6.306;2023-05-08T09:57:30;102011.97;;;21.78;52.78
73455;BME280;61690;51.824;6.306;2023-05-08T10:00:03;102014.63;;;21.78;52.87
73455;BME280;61690;51.824;6.306;2023-05-08T10:02:30;102018.91;;;21.81;53.01
73455;BME280;61690;51.824;6.306;2023-05-08T10:04:55;102021.56;;;21.81;53.07
73455;BME280;61690;51.824;6.306;2023-05-08T10:07:33;102022.31;;;21.83;52.96
73455;BME280;61690;51.824;6.306;2023-05-08T10:10:03;102018.69;;;21.84;53.25
73455;BME280;61690;51.824;6.306;2023-05-08T10:12:31;102018.81;;;21.82;52.12
73455;BME280;61690;51.824;6.306;2023-05-08T10:14:57;102015.38;;;21.80;52.42
73455;BME280;61690;51.824;6.306;2023-05-08T10:17:37;102017.19;;;21.80;52.60
73455;BME280;61690;51.824;6.306;2023-05-08T10:20:06;102006.69;;;21.78;52.50
73455;BME280;61690;51.824;6.306;2023-05-08T10:22:36;102013.13;;;21.74;52.57
73455;BME280;61690;51.824;6.306;2023-05-08T10:25:02;102015.59;;;21.77;52.36
73455;BME280;61690;51.824;6.306;2023-05-08T10:27:42;102005.16;;;21.74;52.51
73455;BME280;61690;51.824;6.306;2023-05-08T10:30:12;102005.16;;;21.74;52.55
73455;BME280;61690;51.824;6.306;2023-05-08T10:32:42;102008.78;;;21.73;52.43
73455;BME280;61690;51.824;6.306;2023-05-08T10:35:10;102005.16;;;21.74;52.32
73455;BME280;61690;51.824;6.306;2023-05-08T10:37:38;102018.41;;;21.74;52.25
73455;BME280;61690;51.824;6.306;2023-05-08T10:40:05;102006.97;;;21.73;52.14
73455;BME280;61690;51.824;6.306;2023-05-08T10:42:32;102007.81;;;21.74;52.31
73455;BME280;61690;51.824;6.306;2023-05-08T10:45:02;102008.56;;;21.76;52.09
73455;BME280;61690;51.824;6.306;2023-05-08T10:52:53;102004.03;;;21.78;51.97
73455;BME280;61690;51.824;6.306;2023-05-08T10:55:34;101997.63;;;21.82;52.19
73455;BME280;61690;51.824;6.306;2023-05-08T10:58:27;101994.00;;;21.83;52.17
73455;BME280;61690;51.824;6.306;2023-05-08T11:03:26;101995.34;;;21.90;52.05
73455;BME280;61690;51.824;6.306;2023-05-08T11:05:54;101995.03;;;21.95;52.64
73455;BME280;61690;51.824;6.306;2023-05-08T11:08:24;102006.22;;;22.00;52.57
73455;BME280;61690;51.824;6.306;2023-05-08T11:13:45;102000.06;;;22.00;52.52
73455;BME280;61690;51.824;6.306;2023-05-08T11:16:12;101995.53;;;22.02;52.83
73455;BME280;61690;51.824;6.306;2023-05-08T11:19:16;101992.66;;;22.05;52.78
73455;BME280;61690;51.824;6.306;2023-05-08T11:22:13;101998.63;;;22.08;52.71
73455;BME280;61690;51.824;6.306;2023-05-08T11:24:46;101996.72;;;22.10;53.08
73455;BME280;61690;51.824;6.306;2023-05-08T11:27:14;101985.00;;;22.15;53.07
73455;BME280;61690;51.824;6.306;2023-05-08T11:29:40;101983.97;;;22.17;52.86
73455;BME280;61690;51.824;6.306;2023-05-08T11:32:06;101983.00;;;22.18;53.05
73455;BME280;61690;51.824;6.306;2023-05-08T11:34:45;101969.97;;;22.15;52.87
73455;BME280;61690;51.824;6.306;2023-05-08T11:37:17;101969.97;;;22.15;53.03
73455;BME280;61690;51.824;6.306;2023-05-08T11:39:43;101971.56;;;22.18;53.39
73455;BME280;61690;51.824;6.306;2023-05-08T11:45:09;101966.44;;;22.15;52.35
73455;BME280;61690;51.824;6.306;2023-05-08T11:47:36;101959.53;;;22.12;51.86
73455;BME280;61690;51.824;6.306;2023-05-08T11:50:06;101959.84;;;22.07;51.79
73455;BME280;61690;51.824;6.306;2023-05-08T11:52:35;101954.63;;;22.06;51.99
73455;BME280;61690;51.824;6.306;2023-05-08T11:55:06;101961.75;;;22.05;51.87
73455;BME280;61690;51.824;6.306;2023-05-08T11:57:32;101956.44;;;22.05;51.78
73455;BME280;61690;51.824;6.306;2023-05-08T11:59:58;101953.88;;;22.04;51.63
73455;BME280;61690;51.824;6.306;2023-05-08T12:02:35;101954.81;;;22.03;51.77
73455;BME280;61690;51.824;6.306;2023-05-08T12:05:01;101957.47;;;22.03;51.59
73455;BME280;61690;51.824;6.306;2023-05-08T12:07:29;101962.78;;;22.03;51.57
73455;BME280;61690;51.824;6.306;2023-05-08T12:09:54;101955.78;;;22.02;51.42
73455;BME280;61690;51.824;6.306;2023-05-08T12:12:20;101960.13;;;22.03;51.27
73455;BME280;61690;51.824;6.306;2023-05-08T12:14:49;101964.66;;;22.01;51.14
73455;BME280;61690;51.824;6.306;2023-05-08T12:17:18;101960.22;;;22.01;51.34
73455;BME280;61690;51.824;6.306;2023-05-08T12:19:44;101962.03;;;22.01;51.38
73455;BME280;61690;51.824;6.306;2023-05-08T12:22:10;101959.38;;;22.01;51.40
73455;BME280;61690;51.824;6.306;2023-05-08T12:24:37;101960.22;;;22.01;51.43
73455;BME280;61690;51.824;6.306;2023-05-08T12:27:03;101962.97;;;22.00;51.39
73455;BME280;61690;51.824;6.306;2023-05-08T12:29:28;101964.66;;;22.01;51.29
73455;BME280;61690;51.824;6.306;2023-05-08T12:31:54;101956.72;;;22.01;51.39
73455;BME280;61690;51.824;6.306;2023-05-08T12:34:20;101962.09;;;21.99;51.30
73455;BME280;61690;51.824;6.306;2023-05-08T12:36:45;101955.97;;;21.99;51.39
73455;BME280;61690;51.824;6.306;2023-05-08T12:39:12;101961.25;;;21.99;51.31
73455;BME280;61690;51.824;6.306;2023-05-08T12:41:56;101952.56;;;21.97;51.37
73455;BME280;61690;51.824;6.306;2023-05-08T12:44:23;101958.53;;;22.00;51.45
73455;BME280;61690;51.824;6.306;2023-05-08T12:46:53;101959.28;;;22.02;51.21
73455;BME280;61690;51.824;6.306;2023-05-08T12:49:25;101968.91;;;22.03;51.26
73455;BME280;61690;51.824;6.306;2023-05-08T12:52:02;101968.06;;;22.03;51.16
73455;BME280;61690;51.824;6.306;2023-05-08T12:54:33;101967.22;;;22.02;51.23
73455;BME280;61690;51.824;6.306;2023-05-08T12:56:59;101964.59;;;22.02;51.19
73455;BME280;61690;51.824;6.306;2023-05-08T12:59:30;101959.19;;;22.04;51.14
73455;BME280;61690;51.824;6.306;2023-05-08T13:01:56;101953.88;;;22.04;51.11
73455;BME280;61690;51.824;6.306;2023-05-08T13:04:21;101953.88;;;22.04;51.46
73455;BME280;61690;51.824;6.306;2023-05-08T13:06:54;101953.88;;;22.04;51.42
73455;BME280;61690;51.824;6.306;2023-05-08T13:09:19;101953.88;;;22.04;51.15
73455;BME280;61690;51.824;6.306;2023-05-08T13:11:46;101946.78;;;22.04;51.12
73455;BME280;61690;51.824;6.306;2023-05-08T13:14:11;101945.84;;;22.05;50.91
73455;BME280;61690;51.824;6.306;2023-05-08T13:16:52;101946.47;;;22.09;51.11
73455;BME280;61690;51.824;6.306;2023-05-08T13:19:24;101939.00;;;22.01;51.51
73455;BME280;61690;51.824;6.306;2023-05-08T13:21:51;101940.91;;;21.99;52.06
73455;BME280;61690;51.824;6.306;2023-05-08T13:24:16;101940.81;;;22.01;52.02
73455;BME280;61690;51.824;6.306;2023-05-08T13:26:42;101932.88;;;22.01;52.08
73455;BME280;61690;51.824;6.306;2023-05-08T13:29:07;101932.13;;;21.99;52.08
73455;BME280;61690;51.824;6.306;2023-05-08T13:31:32;101931.38;;;21.97;52.08
73455;BME280;61690;51.824;6.306;2023-05-08T13:33:58;101929.66;;;21.96;52.14
73455;BME280;61690;51.824;6.306;2023-05-08T13:36:23;101933.19;;;21.96;52.33
73455;BME280;61690;51.824;6.306;2023-05-08T13:38:49;101930.53;;;21.96;52.19
73455;BME280;61690;51.824;6.306;2023-05-08T13:41:15;101923.44;;;21.97;52.22